Time;durP1;ratioP1;P1;durP2;ratioP2;P2;SDS_P1;SDS_P2;PMS_P1;PMS_P2;Temp;Humidity;BMP_temperature;BMP_pressure;BME280_temperature;BME280_humidity;BME280_pressure;Samples;Min_cycle;Max_cycle;Signal;HPM_P1;HPM_P2
2021/03/24 00:00:01;;;;;;;23.88;21.27;;;;;;;;;;5011920;28;20371;-82
2021/03/24 00:02:27;;;;;;;29.35;23.38;;;;;;;;;;4994119;28;20386;-83
2021/03/24 00:04:53;;;;;;;25.58;22.48;;;;;;;;;;4994081;28;20738;-82
2021/03/24 00:07:19;;;;;;;27.08;22.35;;;;;;;;;;5011427;28;20387;-82
2021/03/24 00:09:45;;;;;;;23.20;20.70;;;;;;;;;;4993941;28;20438;-82
2021/03/24 00:12:11;;;;;;;28.00;22.45;;;;;;;;;;5011338;28;20387;-82
2021/03/24 00:14:37;;;;;;;28.00;23.55;;;;;;;;;;5011609;28;20958;-82
2021/03/24 00:17:03;;;;;;;28.90;23.00;;;;;;;;;;5011342;28;20461;-82
2021/03/24 00:19:29;;;;;;;26.80;23.52;;;;;;;;;;5011401;28;20457;-82
2021/03/24 00:21:55;;;;;;;29.57;23.70;;;;;;;;;;5011334;28;20427;-83
2021/03/24 00:24:21;;;;;;;26.65;22.13;;;;;;;;;;5011409;28;20364;-83
2021/03/24 00:26:47;;;;;;;25.27;22.27;;;;;;;;;;5011235;28;20385;-82
2021/03/24 00:29:13;;;;;;;26.02;22.85;;;;;;;;;;5011218;28;20383;-82
2021/03/24 00:31:39;;;;;;;22.15;19.77;;;;;;;;;;5011146;28;20376;-82
2021/03/24 00:34:05;;;;;;;25.38;21.20;;;;;;;;;;5011176;28;21040;-82
2021/03/24 00:36:31;;;;;;;23.90;21.05;;;;;;;;;;5010904;28;20402;-82
2021/03/24 00:38:57;;;;;;;22.95;20.55;;;;;;;;;;5010976;28;20379;-83
2021/03/24 00:41:23;;;;;;;25.00;22.20;;;;;;;;;;4993235;28;20379;-83
2021/03/24 00:43:48;;;;;;;25.20;21.67;;;;;;;;;;5011134;28;21002;-82
2021/03/24 00:46:14;;;;;;;27.57;22.17;;;;;;;;;;5011051;28;20467;-82
2021/03/24 00:48:40;;;;;;;24.27;21.10;;;;;;;;;;5010913;28;20393;-82
2021/03/24 00:51:07;;;;;;;23.75;21.15;;;;;;;;;;5011067;28;20498;-82
2021/03/24 00:53:33;;;;;;;24.45;20.58;;;;;;;;;;5010946;28;20383;-82
2021/03/24 00:55:59;;;;;;;22.27;19.83;;;;;;;;;;5010603;28;20399;-83
2021/03/24 00:58:25;;;;;;;26.58;21.52;;;;;;;;;;5010708;28;20781;-82
2021/03/24 01:00:51;;;;;;;25.92;21.02;;;;;;;;;;4992295;28;20379;-82
2021/03/24 01:03:18;;;;;;;26.50;22.13;;;;;;;;;;4993101;28;20481;-82
2021/03/24 01:05:48;;;;;;;26.17;21.52;;;;;;;;;;5010757;28;20410;-82
2021/03/24 01:08:15;;;;;;;23.60;20.73;;;;;;;;;;4993056;28;20390;-82
2021/03/24 01:10:42;;;;;;;25.92;22.67;;;;;;;;;;5010705;28;20383;-82
2021/03/24 01:13:08;;;;;;;24.27;20.58;;;;;;;;;;5010458;28;20496;-83
2021/03/24 01:15:35;;;;;;;25.57;21.63;;;;;;;;;;5010535;28;20729;-82
2021/03/24 01:18:01;;;;;;;26.48;22.73;;;;;;;;;;5010613;28;20375;-82
2021/03/24 01:20:29;;;;;;;22.73;20.33;;;;;;;;;;4993160;28;20427;-82
2021/03/24 01:22:56;;;;;;;23.92;20.77;;;;;;;;;;5010392;28;20402;-83
2021/03/24 01:25:22;;;;;;;24.33;21.02;;;;;;;;;;5010270;28;20374;-83
2021/03/24 01:27:49;;;;;;;26.67;22.60;;;;;;;;;;5010374;28;21182;-82
2021/03/24 01:30:16;;;;;;;22.98;20.48;;;;;;;;;;4992759;28;20746;-82
2021/03/24 01:32:42;;;;;;;27.38;22.08;;;;;;;;;;4992531;28;20393;-82
2021/03/24 01:35:09;;;;;;;23.37;20.53;;;;;;;;;;5010057;28;20853;-82
2021/03/24 01:37:37;;;;;;;24.63;20.98;;;;;;;;;;5010046;28;20375;-82
2021/03/24 01:40:05;;;;;;;27.88;22.15;;;;;;;;;;4992698;28;20390;-82
2021/03/24 01:42:31;;;;;;;25.83;21.70;;;;;;;;;;4992563;28;20744;-82
2021/03/24 01:45:17;;;;;;;23.90;21.10;;;;;;;;;;5010253;28;20433;-82
2021/03/24 01:47:44;;;;;;;23.85;20.98;;;;;;;;;;4962862;28;20438;-82
2021/03/24 01:50:18;;;;;;;23.40;20.63;;;;;;;;;;4992535;28;20378;-82
2021/03/24 01:52:44;;;;;;;26.80;21.63;;;;;;;;;;4992637;28;20387;-82
2021/03/24 01:55:10;;;;;;;23.58;21.02;;;;;;;;;;5010206;28;20394;-82
2021/03/24 01:57:38;;;;;;;26.17;21.50;;;;;;;;;;5010055;28;20383;-82
2021/03/24 02:00:06;;;;;;;23.52;20.00;;;;;;;;;;4992311;28;20391;-82
2021/03/24 02:02:36;;;;;;;22.52;19.45;;;;;;;;;;4992276;28;20423;-82
2021/03/24 02:05:02;;;;;;;24.05;20.58;;;;;;;;;;5009990;28;20422;-83
2021/03/24 02:07:35;;;;;;;25.23;20.80;;;;;;;;;;5009826;28;20371;-82
2021/03/24 02:10:07;;;;;;;23.00;20.20;;;;;;;;;;4992201;28;20418;-82
2021/03/24 02:12:43;;;;;;;23.48;20.35;;;;;;;;;;5011149;28;20395;-83
2021/03/24 02:15:11;;;;;;;27.23;21.23;;;;;;;;;;5013444;28;20434;-82
2021/03/24 02:17:40;;;;;;;22.87;19.77;;;;;;;;;;4995822;28;20449;-82
2021/03/24 02:20:13;;;;;;;23.25;20.00;;;;;;;;;;4995889;28;20379;-82
2021/03/24 02:22:41;;;;;;;23.90;20.20;;;;;;;;;;5013675;28;20504;-82
2021/03/24 02:25:21;;;;;;;22.50;18.25;;;;;;;;;;5013717;28;20371;-82
2021/03/24 02:27:49;;;;;;;22.50;19.92;;;;;;;;;;4995893;28;20434;-83
2021/03/24 02:30:17;;;;;;;24.40;20.80;;;;;;;;;;5013529;28;20375;-82
2021/03/24 02:32:50;;;;;;;24.87;20.63;;;;;;;;;;5013454;28;20411;-82
2021/03/24 02:35:18;;;;;;;23.40;20.17;;;;;;;;;;5013442;28;20402;-82
2021/03/24 02:37:45;;;;;;;25.40;21.35;;;;;;;;;;5013231;28;20398;-82
2021/03/24 02:40:13;;;;;;;24.38;20.17;;;;;;;;;;4995487;28;20415;-82
2021/03/24 02:42:41;;;;;;;22.58;19.42;;;;;;;;;;5013188;28;20418;-82
2021/03/24 02:45:09;;;;;;;23.67;20.05;;;;;;;;;;5013197;28;20466;-82
2021/03/24 02:47:35;;;;;;;24.27;19.98;;;;;;;;;;5013269;28;20418;-82
2021/03/24 02:50:01;;;;;;;24.73;19.43;;;;;;;;;;5013226;28;20414;-82
2021/03/24 02:52:27;;;;;;;23.65;19.83;;;;;;;;;;5012843;28;20364;-82
2021/03/24 02:54:53;;;;;;;22.52;19.58;;;;;;;;;;4995208;28;20383;-82
2021/03/24 02:57:20;;;;;;;27.67;21.47;;;;;;;;;;4995187;28;20792;-83
2021/03/24 02:59:46;;;;;;;24.42;20.35;;;;;;;;;;5013035;28;20370;-82
2021/03/24 03:02:20;;;;;;;21.58;18.83;;;;;;;;;;5013104;28;20885;-82
2021/03/24 03:04:53;;;;;;;22.40;19.55;;;;;;;;;;4995406;28;20904;-82
2021/03/24 03:07:24;;;;;;;27.08;21.85;;;;;;;;;;4995201;28;20411;-82
2021/03/24 03:09:51;;;;;;;23.65;20.13;;;;;;;;;;4995373;28;20379;-81
2021/03/24 03:12:23;;;;;;;23.48;20.38;;;;;;;;;;5012869;28;20394;-82
2021/03/24 03:14:57;;;;;;;24.80;19.98;;;;;;;;;;5012776;28;20383;-82
2021/03/24 03:17:36;;;;;;;25.70;21.35;;;;;;;;;;5012755;28;20447;-83
2021/03/24 03:20:17;;;;;;;25.75;20.42;;;;;;;;;;5012616;28;20884;-82
2021/03/24 03:22:48;;;;;;;24.13;20.63;;;;;;;;;;5012568;28;20367;-82
2021/03/24 03:25:20;;;;;;;25.95;20.92;;;;;;;;;;5011357;28;20722;-82
2021/03/24 03:27:46;;;;;;;23.93;20.43;;;;;;;;;;5012404;28;20424;-82
2021/03/24 03:30:14;;;;;;;24.73;20.70;;;;;;;;;;5012422;28;20514;-82
2021/03/24 03:32:42;;;;;;;24.88;20.40;;;;;;;;;;5012187;28;20923;-82
2021/03/24 03:35:10;;;;;;;23.83;20.60;;;;;;;;;;4986773;28;20396;-82
2021/03/24 03:37:37;;;;;;;24.20;20.27;;;;;;;;;;5012297;28;20379;-82
2021/03/24 03:40:03;;;;;;;22.42;19.65;;;;;;;;;;5012350;28;20387;-82
2021/03/24 03:42:29;;;;;;;25.85;21.42;;;;;;;;;;4994501;28;20383;-82
2021/03/24 03:44:56;;;;;;;22.77;20.35;;;;;;;;;;5012123;28;20390;-82
2021/03/24 03:47:22;;;;;;;23.58;20.08;;;;;;;;;;4994236;28;20858;-83
2021/03/24 03:49:50;;;;;;;23.50;20.27;;;;;;;;;;4994274;28;20390;-82
2021/03/24 03:52:25;;;;;;;24.98;20.10;;;;;;;;;;4994331;28;20881;-82
2021/03/24 03:54:58;;;;;;;23.65;19.63;;;;;;;;;;5011985;28;20457;-82
2021/03/24 03:57:43;;;;;;;25.20;21.08;;;;;;;;;;4993861;28;20968;-82
2021/03/24 04:00:38;;;;;;;25.88;20.70;;;;;;;;;;5011771;28;20387;-82
2021/03/24 04:03:22;;;;;;;24.13;20.95;;;;;;;;;;4981637;28;20379;-82
2021/03/24 04:05:50;;;;;;;24.35;20.92;;;;;;;;;;4994061;28;20383;-82
2021/03/24 04:08:19;;;;;;;24.45;20.92;;;;;;;;;;5011580;28;20449;-82
2021/03/24 04:10:51;;;;;;;25.70;20.63;;;;;;;;;;4994041;28;20766;-82
2021/03/24 04:13:17;;;;;;;23.55;20.75;;;;;;;;;;5011335;28;20391;-82
2021/03/24 04:15:43;;;;;;;25.58;21.05;;;;;;;;;;5011191;28;20404;-82
2021/03/24 04:18:20;;;;;;;23.13;19.77;;;;;;;;;;5011116;28;20383;-82
2021/03/24 04:20:47;;;;;;;28.90;22.60;;;;;;;;;;4988337;28;20383;-82
2021/03/24 04:23:15;;;;;;;26.08;21.38;;;;;;;;;;5011241;28;20407;-82
2021/03/24 04:25:50;;;;;;;27.42;22.23;;;;;;;;;;5011151;28;20364;-82
2021/03/24 04:28:18;;;;;;;27.23;22.02;;;;;;;;;;5011160;28;20375;-82
2021/03/24 04:30:55;;;;;;;27.58;22.02;;;;;;;;;;5011224;28;20482;-82
2021/03/24 04:33:21;;;;;;;27.23;22.00;;;;;;;;;;4993325;28;20823;-82
2021/03/24 04:35:47;;;;;;;25.40;20.58;;;;;;;;;;5010815;28;20441;-82
2021/03/24 04:38:18;;;;;;;25.23;20.43;;;;;;;;;;5011126;28;20375;-82
2021/03/24 04:40:52;;;;;;;25.87;21.20;;;;;;;;;;5011158;28;20906;-82
2021/03/24 04:43:22;;;;;;;23.90;20.60;;;;;;;;;;4993549;28;20375;-82
2021/03/24 04:45:55;;;;;;;24.50;20.30;;;;;;;;;;5011069;28;20383;-83
2021/03/24 04:48:24;;;;;;;25.13;20.95;;;;;;;;;;5011164;28;20382;-83
2021/03/24 04:50:55;;;;;;;23.73;20.58;;;;;;;;;;5011120;28;20847;-83
2021/03/24 04:53:21;;;;;;;23.30;19.30;;;;;;;;;;4993344;28;20375;-83
2021/03/24 04:55:48;;;;;;;22.37;19.30;;;;;;;;;;4993417;28;20445;-82
2021/03/24 04:58:23;;;;;;;25.08;19.58;;;;;;;;;;4993427;28;20383;-83
2021/03/24 05:00:50;;;;;;;23.08;19.90;;;;;;;;;;5010983;28;20378;-82
2021/03/24 05:03:18;;;;;;;22.35;18.63;;;;;;;;;;4993235;28;20391;-83
2021/03/24 05:06:04;;;;;;;27.70;22.15;;;;;;;;;;5010846;28;20390;-82
2021/03/24 05:08:34;;;;;;;23.30;19.10;;;;;;;;;;5010892;28;20426;-85
2021/03/24 05:11:13;;;;;;;24.45;19.90;;;;;;;;;;5010763;28;20371;-85
2021/03/24 05:13:41;;;;;;;23.15;20.17;;;;;;;;;;4993077;28;20395;-85
2021/03/24 05:16:26;;;;;;;23.90;19.40;;;;;;;;;;5010711;28;20407;-85
2021/03/24 05:18:53;;;;;;;24.53;20.13;;;;;;;;;;5010872;28;20843;-84
2021/03/24 05:21:42;;;;;;;23.83;20.05;;;;;;;;;;4992925;28;20375;-84
2021/03/24 05:24:12;;;;;;;25.63;20.63;;;;;;;;;;4999971;28;20395;-84
2021/03/24 05:26:39;;;;;;;25.20;20.45;;;;;;;;;;5010560;28;20477;-85
2021/03/24 05:29:10;;;;;;;24.65;20.25;;;;;;;;;;5010637;28;20843;-84
2021/03/24 05:31:39;;;;;;;24.40;20.70;;;;;;;;;;5010494;28;20758;-84
2021/03/24 05:34:07;;;;;;;26.65;20.45;;;;;;;;;;5010774;28;20857;-84
2021/03/24 05:36:33;;;;;;;25.13;21.38;;;;;;;;;;5010328;28;20410;-84
2021/03/24 05:39:09;;;;;;;26.80;20.98;;;;;;;;;;5010402;28;20380;-84
2021/03/24 05:41:47;;;;;;;27.67;21.10;;;;;;;;;;5010473;28;20793;-83
2021/03/24 05:44:28;;;;;;;25.60;21.40;;;;;;;;;;5010228;28;20403;-82
2021/03/24 05:47:00;;;;;;;24.52;19.98;;;;;;;;;;5010456;28;20437;-83
2021/03/24 05:49:29;;;;;;;23.85;21.00;;;;;;;;;;5013056;28;20771;-83
2021/03/24 05:52:05;;;;;;;26.67;22.15;;;;;;;;;;5014276;28;20518;-82
2021/03/24 05:54:58;;;;;;;32.40;25.95;;;;;;;;;;5014047;28;20971;-86
2021/03/24 05:57:32;;;;;;;27.75;24.40;;;;;;;;;;5004712;28;20469;-84
2021/03/24 05:59:57;;;;;;;32.13;26.48;;;;;;;;;;5013419;28;20382;-83
2021/03/24 06:02:37;;;;;;;37.20;29.15;;;;;;;;;;5011464;28;20453;-85
2021/03/24 06:05:06;;;;;;;43.50;35.47;;;;;;;;;;5013282;28;20896;-82
2021/03/24 06:07:35;;;;;;;47.03;38.80;;;;;;;;;;5014728;28;20412;-84
2021/03/24 06:10:28;;;;;;;44.78;38.38;;;;;;;;;;5011683;28;20781;-85
2021/03/24 06:12:54;;;;;;;51.97;43.28;;;;;;;;;;5033461;28;20381;-85
2021/03/24 06:15:34;;;;;;;50.72;43.70;;;;;;;;;;5015765;28;20416;-88
2021/03/24 06:18:06;;;;;;;56.13;45.10;;;;;;;;;;5023227;28;20403;-85
2021/03/24 06:20:50;;;;;;;60.83;48.75;;;;;;;;;;4994834;28;20387;-84
2021/03/24 06:23:26;;;;;;;56.05;47.47;;;;;;;;;;5012010;28;20382;-83
2021/03/24 06:26:16;;;;;;;59.03;49.22;;;;;;;;;;5013640;28;20482;-86
2021/03/24 06:28:45;;;;;;;57.05;48.22;;;;;;;;;;5013223;28;20913;-85
2021/03/24 06:31:25;;;;;;;53.97;46.17;;;;;;;;;;5012909;28;20394;-83
2021/03/24 06:33:51;;;;;;;62.73;50.23;;;;;;;;;;5011758;28;21046;-83
2021/03/24 06:36:36;;;;;;;57.87;48.50;;;;;;;;;;4995136;28;20422;-84
2021/03/24 06:39:14;;;;;;;57.65;48.20;;;;;;;;;;4995901;28;20371;-85
2021/03/24 06:41:58;;;;;;;56.35;47.63;;;;;;;;;;5013031;28;20434;-85
2021/03/24 06:44:34;;;;;;;55.88;49.30;;;;;;;;;;5013351;28;20367;-84
2021/03/24 06:47:06;;;;;;;59.53;49.42;;;;;;;;;;5013418;28;20379;-85
2021/03/24 06:49:51;;;;;;;57.53;49.10;;;;;;;;;;4995710;28;20375;-85
2021/03/24 06:52:31;;;;;;;59.38;49.08;;;;;;;;;;5013288;28;20466;-86
2021/03/24 06:55:09;;;;;;;59.13;50.28;;;;;;;;;;4995518;28;20379;-85
2021/03/24 06:57:51;;;;;;;61.75;51.00;;;;;;;;;;5013040;28;20430;-86
2021/03/24 07:00:25;;;;;;;59.95;50.72;;;;;;;;;;4995434;28;20481;-85
2021/03/24 07:03:12;;;;;;;61.80;49.95;;;;;;;;;;4985790;28;20405;-86
2021/03/24 07:05:44;;;;;;;67.85;51.80;;;;;;;;;;5002885;28;20853;-84
2021/03/24 07:08:28;;;;;;;67.47;54.17;;;;;;;;;;5019834;28;20385;-86
2021/03/24 07:10:57;;;;;;;67.55;53.83;;;;;;;;;;5014291;28;20440;-85
2021/03/24 07:13:42;;;;;;;65.20;54.13;;;;;;;;;;5014229;28;20385;-85
2021/03/24 07:16:26;;;;;;;61.35;53.15;;;;;;;;;;5031879;28;20408;-85
2021/03/24 07:18:58;;;;;;;66.00;54.05;;;;;;;;;;5031905;28;20907;-86
2021/03/24 07:21:50;;;;;;;62.80;52.33;;;;;;;;;;5014172;28;20389;-85
2021/03/24 07:24:22;;;;;;;64.63;53.25;;;;;;;;;;5031836;28;20464;-85
2021/03/24 07:26:55;;;;;;;64.07;53.17;;;;;;;;;;5031123;28;20380;-85
2021/03/24 07:29:36;;;;;;;67.10;52.50;;;;;;;;;;5032517;28;20374;-87
2021/03/24 07:32:07;;;;;;;64.87;52.23;;;;;;;;;;5032232;28;20370;-86
2021/03/24 07:34:33;;;;;;;65.57;53.33;;;;;;;;;;5014394;28;20399;-85
2021/03/24 07:37:18;;;;;;;61.37;52.40;;;;;;;;;;5014266;28;20896;-88
2021/03/24 07:39:58;;;;;;;64.70;52.27;;;;;;;;;;5032019;28;20945;-90
2021/03/24 07:42:40;;;;;;;65.57;53.17;;;;;;;;;;5031656;28;20396;-91
2021/03/24 07:45:25;;;;;;;66.63;53.38;;;;;;;;;;4981152;28;20472;-89
2021/03/24 07:47:51;;;;;;;64.63;52.72;;;;;;;;;;4975618;28;20408;-89
2021/03/24 07:50:16;;;;;;;71.88;54.05;;;;;;;;;;4992673;28;20397;-91
2021/03/24 07:52:56;;;;;;;66.97;54.47;;;;;;;;;;4975024;28;20429;-91
2021/03/24 07:55:25;;;;;;;69.75;53.47;;;;;;;;;;4975832;28;20400;-84
2021/03/24 07:58:10;;;;;;;70.68;54.25;;;;;;;;;;5013903;28;20395;-89
2021/03/24 08:00:52;;;;;;;66.65;54.90;;;;;;;;;;5012386;28;20375;-88
2021/03/24 08:03:31;;;;;;;68.32;55.17;;;;;;;;;;5025347;28;20383;-94
2021/03/24 08:06:16;;;;;;;63.78;53.90;;;;;;;;;;5012538;28;20434;-87
2021/03/24 08:09:00;;;;;;;69.32;54.72;;;;;;;;;;5014737;28;20466;-83
2021/03/24 08:11:32;;;;;;;69.90;54.92;;;;;;;;;;4993317;28;20482;-89
2021/03/24 08:14:10;;;;;;;69.68;55.53;;;;;;;;;;5010924;28;20414;-85
2021/03/24 08:16:48;;;;;;;69.20;54.77;;;;;;;;;;4993427;28;20441;-85
2021/03/24 08:19:17;;;;;;;72.40;56.57;;;;;;;;;;5011140;28;20387;-89
2021/03/24 08:22:01;;;;;;;70.03;55.47;;;;;;;;;;5010888;28;20391;-90
2021/03/24 08:24:40;;;;;;;69.78;55.83;;;;;;;;;;4993240;28;20371;-89
2021/03/24 08:27:12;;;;;;;71.75;56.65;;;;;;;;;;5011473;28;20379;-91
2021/03/24 08:29:37;;;;;;;69.43;55.40;;;;;;;;;;4995413;28;20379;-88
2021/03/24 08:32:16;;;;;;;71.10;57.90;;;;;;;;;;4994825;28;21000;-89
2021/03/24 08:34:49;;;;;;;73.17;57.17;;;;;;;;;;5011036;28;20387;-86
2021/03/24 08:37:34;;;;;;;69.90;56.47;;;;;;;;;;4993905;28;21193;-87
2021/03/24 08:40:22;;;;;;;75.18;57.03;;;;;;;;;;4993546;28;20375;-88
2021/03/24 08:42:48;;;;;;;73.72;58.08;;;;;;;;;;4993152;28;20387;-90
2021/03/24 08:45:21;;;;;;;76.72;59.03;;;;;;;;;;5011515;28;20386;-90
2021/03/24 08:47:49;;;;;;;77.82;60.00;;;;;;;;;;5011449;28;20376;-91
2021/03/24 08:50:36;;;;;;;76.90;59.50;;;;;;;;;;5011420;28;20462;-88
2021/03/24 08:53:07;;;;;;;76.13;60.10;;;;;;;;;;5010984;28;20869;-89
2021/03/24 08:55:46;;;;;;;80.18;60.10;;;;;;;;;;5011111;28;20412;-92
2021/03/24 08:58:17;;;;;;;72.65;58.15;;;;;;;;;;5010977;28;20378;-89
2021/03/24 09:00:56;;;;;;;74.47;58.97;;;;;;;;;;5011111;28;20371;-91
2021/03/24 09:03:34;;;;;;;77.90;60.80;;;;;;;;;;5010900;28;20402;-88
2021/03/24 09:06:10;;;;;;;79.17;59.77;;;;;;;;;;5011043;28;20383;-88
2021/03/24 09:08:39;;;;;;;76.13;58.83;;;;;;;;;;4993122;28;20471;-86
2021/03/24 09:11:24;;;;;;;78.75;61.38;;;;;;;;;;4992994;28;20419;-90
2021/03/24 09:13:57;;;;;;;80.65;61.72;;;;;;;;;;5011021;28;20376;-90
2021/03/24 09:16:23;;;;;;;81.70;62.00;;;;;;;;;;4993778;28;20893;-87
2021/03/24 09:18:52;;;;;;;80.13;60.53;;;;;;;;;;4993141;28;20430;-88
2021/03/24 09:21:23;;;;;;;80.73;61.87;;;;;;;;;;4992842;28;20450;-90
2021/03/24 09:24:04;;;;;;;77.63;61.55;;;;;;;;;;5010394;28;20791;-88
2021/03/24 09:26:33;;;;;;;75.53;58.45;;;;;;;;;;5010282;28;20375;-88
2021/03/24 09:29:11;;;;;;;76.45;60.05;;;;;;;;;;5010494;28;20372;-88
2021/03/24 09:31:56;;;;;;;75.28;59.17;;;;;;;;;;4993081;28;20430;-87
2021/03/24 09:34:45;;;;;;;80.15;61.40;;;;;;;;;;5010395;28;20379;-83
2021/03/24 09:37:13;;;;;;;75.93;59.13;;;;;;;;;;5010357;28;20411;-85
2021/03/24 09:39:53;;;;;;;79.03;61.65;;;;;;;;;;5010122;28;20386;-88
2021/03/24 09:42:30;;;;;;;81.13;62.28;;;;;;;;;;5010460;28;20429;-88
2021/03/24 09:44:57;;;;;;;80.47;64.43;;;;;;;;;;4992397;28;20912;-87
2021/03/24 09:47:32;;;;;;;80.60;64.67;;;;;;;;;;5009990;28;20375;-87
2021/03/24 09:50:06;;;;;;;81.43;62.30;;;;;;;;;;5010095;28;20425;-87
2021/03/24 09:52:35;;;;;;;82.07;62.20;;;;;;;;;;5010114;28;20465;-86
2021/03/24 09:55:01;;;;;;;80.45;62.30;;;;;;;;;;5010042;28;20375;-85
2021/03/24 09:57:42;;;;;;;78.57;61.85;;;;;;;;;;4992184;28;20909;-86
2021/03/24 10:00:12;;;;;;;80.53;62.10;;;;;;;;;;5001892;28;20727;-86
2021/03/24 10:02:41;;;;;;;77.88;60.45;;;;;;;;;;5006221;28;20503;-86
2021/03/24 10:05:08;;;;;;;80.80;63.83;;;;;;;;;;4972956;28;20387;-85
2021/03/24 10:07:38;;;;;;;78.28;61.63;;;;;;;;;;4990251;28;20399;-85
2021/03/24 10:10:07;;;;;;;82.50;62.97;;;;;;;;;;4973592;28;20872;-85
2021/03/24 10:12:50;;;;;;;83.90;63.17;;;;;;;;;;4990194;28;20405;-85
2021/03/24 10:15:35;;;;;;;82.22;63.50;;;;;;;;;;4990767;28;20875;-85
2021/03/24 10:18:04;;;;;;;83.10;62.50;;;;;;;;;;4972946;28;20727;-86
2021/03/24 10:20:36;;;;;;;83.68;62.92;;;;;;;;;;4990247;28;20384;-85
2021/03/24 10:23:15;;;;;;;81.68;62.42;;;;;;;;;;4990404;28;20377;-86
2021/03/24 10:25:43;;;;;;;78.13;60.60;;;;;;;;;;4990624;28;20411;-84
2021/03/24 10:28:16;;;;;;;80.40;62.80;;;;;;;;;;4973109;28;20859;-85
2021/03/24 10:30:54;;;;;;;81.38;62.28;;;;;;;;;;4990199;28;20373;-87
2021/03/24 10:33:23;;;;;;;75.05;58.58;;;;;;;;;;4991998;28;20468;-87
2021/03/24 10:35:58;;;;;;;75.60;59.20;;;;;;;;;;4976634;28;20409;-87
2021/03/24 10:38:27;;;;;;;74.97;57.80;;;;;;;;;;4994005;28;20385;-85
2021/03/24 10:41:06;;;;;;;62.28;50.42;;;;;;;;;;4994535;28;20888;-86
2021/03/24 10:43:51;;;;;;;67.68;52.35;;;;;;;;;;4994120;28;20404;-87
2021/03/24 10:46:23;;;;;;;63.25;51.85;;;;;;;;;;4994187;28;20942;-85
2021/03/24 10:48:52;;;;;;;63.55;49.95;;;;;;;;;;4977300;28;20416;-86
2021/03/24 10:51:37;;;;;;;53.95;43.70;;;;;;;;;;4977308;28;20904;-86
2021/03/24 10:54:07;;;;;;;54.47;44.53;;;;;;;;;;4994275;28;20894;-86
2021/03/24 10:56:51;;;;;;;57.33;45.35;;;;;;;;;;4994419;28;20441;-86
2021/03/24 10:59:29;;;;;;;54.70;45.03;;;;;;;;;;4976618;28;20381;-86
2021/03/24 11:01:58;;;;;;;49.22;41.33;;;;;;;;;;4976835;28;20867;-83
2021/03/24 11:04:41;;;;;;;47.30;38.55;;;;;;;;;;4994038;28;20855;-81
2021/03/24 11:07:21;;;;;;;44.67;36.17;;;13.00;99.90;;;;;;5001525;28;20385;-87
2021/03/24 11:09:52;;;;;;;43.85;37.53;;;12.90;99.90;;;;;;5011153;28;20394;-89
2021/03/24 11:12:24;;;;;;;48.00;39.53;;;12.90;99.90;;;;;;5013272;28;20399;-83
2021/03/24 11:15:17;;;;;;;40.90;34.10;;;12.80;99.90;;;;;;5013087;28;20438;-84
2021/03/24 11:17:45;;;;;;;45.00;37.63;;;12.80;99.90;;;;;;5011377;28;20549;-86
2021/03/24 11:20:15;;;;;;;45.30;37.08;;;12.90;99.90;;;;;;5010995;28;20392;-84
2021/03/24 11:22:53;;;;;;;46.25;38.13;;;13.10;99.90;;;;;;5012311;28;20412;-84
2021/03/24 11:25:28;;;;;;;45.27;36.43;;;13.20;99.90;;;;;;5012749;28;20394;-84
2021/03/24 11:28:07;;;;;;;45.40;37.33;;;13.50;99.90;;;;;;5012092;28;20431;-85
2021/03/24 11:30:46;;;;;;;47.75;36.90;;;13.70;99.90;;;;;;5018587;28;20385;-86
2021/03/24 11:33:49;;;;;;;43.67;35.83;;;14.00;99.90;;;;;;5013648;28;20386;-85
2021/03/24 11:36:54;;;;;;;44.38;35.97;;;13.70;99.90;;;;;;5016556;28;20427;-85
2021/03/24 11:39:35;;;;;;;41.42;35.80;;;13.50;99.90;;;;;;4927152;28;20812;-85
2021/03/24 11:42:10;;;;;;;42.20;35.80;;;13.60;99.90;;;;;;5006635;28;20496;-86
2021/03/24 11:44:36;;;;;;;45.55;37.28;;;13.60;99.90;;;;;;5018236;28;20472;-86
2021/03/24 11:47:26;;;;;;;44.50;35.97;;;13.70;99.90;;;;;;5017764;28;20489;-84
2021/03/24 11:50:06;;;;;;;41.97;35.92;;;13.60;99.90;;;;;;4977681;28;20429;-86
2021/03/24 11:53:11;;;;;;;43.40;36.75;;;13.30;99.90;;;;;;4998148;28;20409;-84
2021/03/24 11:56:12;;;;;;;41.00;36.22;;;13.00;99.90;;;;;;5018761;28;20401;-85
2021/03/24 11:59:06;;;;;;;46.05;38.08;;;12.50;99.90;;;;;;4995092;28;20396;-93
2021/03/24 12:02:17;;;;;;;42.53;36.30;;;12.70;99.90;;;;;;4999261;28;20475;-88
2021/03/24 12:05:13;;;;;;;44.70;38.25;;;13.00;99.90;;;;;;5017212;28;20392;-86
2021/03/24 12:07:58;;;;;;;45.28;37.28;;;13.10;99.90;;;;;;4998484;28;20462;-87
2021/03/24 12:10:27;;;;;;;46.83;37.63;;;13.10;99.90;;;;;;4999685;28;20938;-86
2021/03/24 12:13:32;;;;;;;41.67;35.72;;;13.10;99.90;;;;;;5018622;28;20474;-85
2021/03/24 12:16:11;;;;;;;46.45;39.10;;;13.30;99.90;;;;;;4977848;28;20480;-86
2021/03/24 12:18:53;;;;;;;46.03;37.95;;;13.50;99.90;;;;;;4993254;28;20415;-90
2021/03/24 12:21:32;;;;;;;47.00;38.50;;;13.70;99.90;;;;;;5012742;28;20442;-89
2021/03/24 12:24:21;;;;;;;45.10;38.13;;;13.80;99.90;;;;;;4989798;28;20393;-89
2021/03/24 12:26:47;;;;;;;46.45;38.97;;;13.80;99.90;;;;;;4996490;28;20911;-84
2021/03/24 12:29:25;;;;;;;47.50;39.40;;;13.90;99.90;;;;;;5016680;28;20438;-88
2021/03/24 12:31:53;;;;;;;49.63;40.03;;;13.90;99.90;;;;;;5017121;28;20507;-89
2021/03/24 12:34:20;;;;;;;48.88;39.42;;;13.90;99.90;;;;;;5000088;28;20396;-85
2021/03/24 12:36:54;;;;;;;46.78;39.30;;;13.90;99.90;;;;;;5016731;28;20404;-87
2021/03/24 12:39:37;;;;;;;46.08;39.00;;;13.80;99.90;;;;;;4997632;28;20422;-87
2021/03/24 12:42:29;;;;;;;47.97;39.28;;;13.80;99.90;;;;;;5017941;28;20397;-86
2021/03/24 12:44:56;;;;;;;48.67;39.92;;;13.90;99.90;;;;;;5017154;28;20383;-88
2021/03/24 12:47:48;;;;;;;49.88;39.33;;;13.90;99.90;;;;;;5016990;28;20412;-88
2021/03/24 12:50:16;;;;;;;50.75;39.25;;;14.00;99.90;;;;;;4998927;28;20383;-86
2021/03/24 12:52:45;;;;;;;47.28;39.10;;;14.10;99.90;;;;;;5024936;28;20414;-89
2021/03/24 12:55:12;;;;;;;48.35;39.75;;;14.30;99.90;;;;;;5011406;28;20423;-88
2021/03/24 12:58:02;;;;;;;45.92;39.38;;;14.30;99.90;;;;;;5028434;28;20402;-85
2021/03/24 13:00:58;;;;;;;51.28;40.83;;;14.30;99.90;;;;;;5009539;28;20414;-84
2021/03/24 13:03:55;;;;;;;47.40;38.85;;;14.10;99.90;;;;;;5025796;28;20417;-86
2021/03/24 13:07:14;;;;;;;;;;;;;;;;;;;;;
2021/03/24 13:10:26;;;;;;;46.17;39.72;;;14.10;99.90;;;;;;5026780;28;20390;-84
2021/03/24 13:13:43;;;;;;;50.40;40.73;;;13.90;99.90;;;;;;5007153;28;20452;-88
2021/03/24 13:16:37;;;;;;;49.92;40.63;;;13.70;99.90;;;;;;5001160;28;20470;-88
2021/03/24 13:20:09;;;;;;;;;;;;;;;;;;;;;
2021/03/24 13:23:21;;;;;;;49.20;40.42;;;13.40;99.90;;;;;;5015854;28;20711;-86
2021/03/24 13:26:29;;;;;;;46.83;40.57;;;13.40;99.90;;;;;;4999390;28;20389;-84
2021/03/24 13:29:13;;;;;;;49.20;41.30;;;13.60;99.90;;;;;;5010276;28;20405;-86
2021/03/24 13:31:59;;;;;;;48.05;40.85;;;13.70;99.90;;;;;;5017844;28;20422;-87
2021/03/24 13:34:53;;;;;;;49.63;40.63;;;13.90;99.90;;;;;;4971058;28;20414;-88
2021/03/24 13:37:30;;;;;;;49.00;40.95;;;14.00;99.90;;;;;;4995435;28;20413;-84
2021/03/24 13:40:07;;;;;;;48.17;41.00;;;13.90;99.90;;;;;;4995567;28;20379;-89
2021/03/24 13:42:45;;;;;;;52.08;43.65;;;13.80;99.90;;;;;;4995638;28;20391;-85
2021/03/24 13:45:27;;;;;;;52.00;44.13;;;13.70;99.90;;;;;;5015986;28;20734;-85
2021/03/24 13:47:59;;;;;;;51.60;43.35;;;13.20;99.90;;;;;;5011730;28;20401;-86
2021/03/24 13:50:34;;;;;;;51.35;42.20;;;13.10;99.90;;;;;;5013670;28;20382;-87
2021/03/24 13:53:10;;;;;;;50.90;43.50;;;13.30;99.90;;;;;;5013294;28;20379;-84
2021/03/24 13:55:45;;;;;;;53.53;45.35;;;13.30;99.90;;;;;;4990138;28;20953;-85
2021/03/24 13:58:17;;;;;;;51.25;44.35;;;13.40;99.90;;;;;;5011714;28;20379;-89
2021/03/24 14:00:50;;;;;;;51.20;43.42;;;13.40;99.90;;;;;;4994989;28;20380;-89
2021/03/24 14:03:38;;;;;;;53.05;43.38;;;13.50;99.90;;;;;;5012982;28;20500;-89
2021/03/24 14:06:32;;;;;;;53.27;44.23;;;13.40;99.90;;;;;;4993957;28;21727;-84
2021/03/24 14:09:25;;;;;;;51.15;43.80;;;13.50;99.90;;;;;;4985854;28;20384;-85
2021/03/24 14:12:21;;;;;;;52.35;44.67;;;13.40;99.90;;;;;;5001692;28;20749;-91
2021/03/24 14:15:20;;;;;;;53.85;43.72;;;13.70;99.90;;;;;;4999205;28;20488;-89
2021/03/24 14:18:01;;;;;;;51.90;43.50;;;13.80;99.90;;;;;;4993590;28;20405;-83
2021/03/24 14:20:52;;;;;;;54.20;44.22;;;14.10;99.90;;;;;;5020220;28;20390;-84
2021/03/24 14:23:46;;;;;;;52.97;43.95;;;13.90;99.90;;;;;;4998824;28;20461;-85
2021/03/24 14:26:15;;;;;;;57.50;47.20;;;14.00;99.90;;;;;;5018392;28;20996;-83
2021/03/24 14:29:06;;;;;;;61.33;49.20;;;14.10;99.90;;;;;;4993821;28;20390;-88
2021/03/24 14:31:58;;;;;;;56.00;48.00;;;14.30;99.90;;;;;;4997495;28;20485;-87
2021/03/24 14:34:38;;;;;;;54.70;46.90;;;14.40;99.90;;;;;;5018630;28;20382;-88
2021/03/24 14:37:36;;;;;;;58.75;49.65;;;14.70;99.90;;;;;;5002358;28;20833;-92